Main page
METAR-TAF:

METAR-TAF

Airports :

Bückeburg Air Base

Bückeburg, Germany

latitude: 52-17N, longitude: 009-05E, elevation: 70 m

Current weather observation

The report was made 1 hour and 19 minutes ago, at 00:20 UTC
Wind 2 kt from the Southeast
Temperature 15°C
Humidity 88%
Pressure 1018 hPa
Visibility 10 km or more

METAR: ETHB 250020Z 13002KT 9999 15/13 Q1018 BLU+

Time: 03:39 (01:39 UTC)

Forecast

The report was made 12 hours and 39 minutes ago, at 13:00 UTC
Forecast valid from 24 at 14 UTC to 24 at 23 UTC
Wind 7 kt from the North
Visibility 10 km or more
Scattered clouds at a height of 5000 ft

TAF: ETHB 241300Z 2414/2423 01007KT 9999 NSW SCT050

Weather observations and forecasts of more than 4000 airports (METAR and TAF reports).

The available stations are represented by yellow and red dots on the map.

Hover mouse over dot to see the name of the station.

Then click to see weather observations and forecasts.

To change the map : click on the green buttons with a black cross to zoom in, on the green button with a dash to zoom out, or on the green arrows for adjacent maps.


METAR-TAF: